Time;durP1;ratioP1;P1;durP2;ratioP2;P2;SDS_P1;SDS_P2;PMS_P1;PMS_P2;Temp;Humidity;BMP_temperature;BMP_pressure;BME280_temperature;BME280_humidity;BME280_pressure;Samples;Min_cycle;Max_cycle;Signal;HPM_P1;HPM_P2
2021/10/09 00:01:57;;;;;;;27.93;12.30;;;;;;;9.47;43.96;101902.18;126315;1099;104146;-78
2021/10/09 00:04:24;;;;;;;30.50;12.83;;;;;;;9.46;44.05;101896.05;126248;1099;104204;-78
2021/10/09 00:06:52;;;;;;;33.93;11.40;;;;;;;9.46;44.04;101888.19;126311;1099;105454;-78
2021/10/09 00:09:20;;;;;;;25.43;10.43;;;;;;;9.47;44.33;101894.32;126267;1099;104316;-79
2021/10/09 00:11:48;;;;;;;28.40;12.43;;;;;;;9.48;44.26;101897.03;126375;1099;104192;-78
2021/10/09 00:14:16;;;;;;;27.00;10.90;;;;;;;9.49;44.66;101896.23;126267;1099;104175;-77
2021/10/09 00:16:45;;;;;;;30.63;11.97;;;;;;;9.48;43.96;101890.90;126389;1099;104264;-78
2021/10/09 00:19:14;;;;;;;35.13;12.10;;;;;;;9.46;43.95;101884.67;126338;1099;104252;-78
2021/10/09 00:21:44;;;;;;;27.60;11.87;;;;;;;9.44;44.45;101886.27;126265;1099;104310;-78
2021/10/09 00:24:13;;;;;;;26.30;11.57;;;;;;;9.44;43.72;101884.58;126275;1099;104274;-79
2021/10/09 00:26:41;;;;;;;30.03;11.90;;;;;;;9.43;44.43;101879.23;126341;1099;109414;-79
2021/10/09 00:29:09;;;;;;;28.53;11.30;;;;;;;9.43;43.98;101879.23;126327;1099;104216;-78
2021/10/09 00:31:38;;;;;;;26.40;12.10;;;;;;;9.40;43.95;101881.67;126299;1099;104195;-78
2021/10/09 00:34:06;;;;;;;32.20;12.27;;;;;;;9.39;44.18;101877.23;126302;1099;104149;-79
2021/10/09 00:36:34;;;;;;;30.30;11.83;;;;;;;9.39;44.31;101878.13;126287;1099;104459;-79
2021/10/09 00:39:03;;;;;;;26.00;10.50;;;;;;;9.39;44.21;101877.23;126296;1099;104159;-78
2021/10/09 00:41:33;;;;;;;30.80;11.80;;;;;;;9.36;44.57;101870.07;126333;1099;104201;-78
2021/10/09 00:44:10;;;;;;;27.13;11.47;;;;;;;9.35;43.87;101868.28;126308;1099;104262;-78
2021/10/09 00:46:39;;;;;;;27.77;11.40;;;;;;;9.34;43.96;101866.45;126288;1099;104294;-78
2021/10/09 00:49:07;;;;;;;26.83;11.57;;;;;;;9.33;43.93;101867.25;126356;1099;104150;-78
2021/10/09 00:51:35;;;;;;;26.07;11.60;;;;;;;9.30;44.14;101869.69;126322;1099;104908;-77
2021/10/09 00:54:03;;;;;;;26.37;11.40;;;;;;;9.26;44.44;101865.98;126274;1099;104320;-79
2021/10/09 00:56:34;;;;;;;27.83;11.90;;;;;;;9.19;44.01;101858.53;126282;1099;104256;-78
2021/10/09 00:59:02;;;;;;;32.47;11.97;;;;;;;9.16;43.96;101861.88;126309;1099;104281;-78
2021/10/09 01:01:32;;;;;;;25.37;11.73;;;;;;;9.13;44.41;101866.00;126337;1099;104293;-79
2021/10/09 01:04:02;;;;;;;26.53;11.10;;;;;;;9.12;44.27;101861.59;126365;1099;104462;-78
2021/10/09 01:06:31;;;;;;;27.75;11.10;;;;;;;9.09;44.38;101862.29;126302;1099;104143;-78
2021/10/09 01:08:59;;;;;;;25.47;11.13;;;;;;;9.07;44.36;101861.30;126308;1099;104278;-77
2021/10/09 01:11:28;;;;;;;24.43;11.10;;;;;;;9.04;44.14;101862.80;126262;1099;104213;-78
2021/10/09 01:13:57;;;;;;;26.53;10.90;;;;;;;9.03;44.21;101866.24;126305;1098;104184;-78
2021/10/09 01:16:29;;;;;;;28.13;10.80;;;;;;;9.01;44.08;101863.53;126289;1099;104166;-79
2021/10/09 01:18:59;;;;;;;30.93;10.90;;;;;;;9.00;44.00;101865.22;126359;1099;104268;-79
2021/10/09 01:21:37;;;;;;;28.00;11.00;;;;;;;8.97;44.41;101861.51;126327;1099;104191;-79
2021/10/09 01:24:05;;;;;;;30.17;11.53;;;;;;;8.94;44.01;101866.55;126308;1099;104277;-78
2021/10/09 01:26:34;;;;;;;29.10;10.87;;;;;;;8.91;44.04;101863.73;126275;1098;104195;-78
2021/10/09 01:29:07;;;;;;;29.37;11.80;;;;;;;8.89;43.62;101863.63;126275;1099;104191;-77
2021/10/09 01:31:36;;;;;;;26.73;11.57;;;;;;;8.85;44.21;101868.57;126302;1099;104165;-78
2021/10/09 01:34:05;;;;;;;27.23;11.17;;;;;;;8.82;44.27;101871.92;126303;1099;101965;-78
2021/10/09 01:36:36;;;;;;;25.10;11.20;;;;;;;8.76;43.54;101868.91;126289;1099;104159;-78
2021/10/09 01:39:06;;;;;;;29.20;11.80;;;;;;;8.72;44.19;101874.73;126305;1099;104281;-78
2021/10/09 01:41:45;;;;;;;30.47;11.73;;;;;;;8.70;44.20;101869.39;126268;1099;104198;-78
2021/10/09 01:44:14;;;;;;;27.60;11.40;;;;;;;8.69;43.94;101870.19;126360;1098;104144;-78
2021/10/09 01:46:42;;;;;;;31.93;11.73;;;;;;;8.66;43.87;101869.09;126304;1099;104156;-79
2021/10/09 01:49:11;;;;;;;27.80;10.97;;;;;;;8.62;43.89;101875.85;126307;1099;102079;-78
2021/10/09 01:51:39;;;;;;;30.25;12.20;;;;;;;8.58;44.02;101872.10;126316;1099;104155;-78
2021/10/09 01:54:09;;;;;;;29.90;11.63;;;;;;;8.55;44.00;101879.75;126281;1099;104138;-79
2021/10/09 01:56:39;;;;;;;24.20;11.30;;;;;;;8.52;43.51;101874.31;126299;1099;104213;-79
2021/10/09 01:59:07;;;;;;;26.53;12.00;;;;;;;8.51;43.61;101875.14;126340;1099;104319;-79
2021/10/09 02:01:43;;;;;;;26.23;11.17;;;;;;;8.51;43.45;101885.61;126294;1099;104142;-78
2021/10/09 02:04:11;;;;;;;27.07;11.00;;;;;;;8.47;43.93;101878.34;126282;1099;104169;-78
2021/10/09 02:06:46;;;;;;;29.63;11.33;;;;;;;8.45;43.59;101877.35;126277;1099;104315;-78
2021/10/09 02:09:16;;;;;;;29.57;11.27;;;;;;;8.44;43.84;101885.99;126305;1099;104188;-78
2021/10/09 02:11:47;;;;;;;29.87;11.90;;;;;;;8.44;43.58;101880.77;126303;1099;102052;-79
2021/10/09 02:14:22;;;;;;;30.70;11.43;;;;;;;8.44;43.95;101875.53;126270;1099;104182;-79
2021/10/09 02:25:12;;;;;;;27.80;11.50;;;;;;;8.31;43.87;101871.17;126331;1099;104153;-78
2021/10/09 02:27:41;;;;;;;25.30;10.23;;;;;;;8.29;44.01;101870.17;126265;1099;105453;-79
2021/10/09 02:30:09;;;;;;;31.07;11.73;;;;;;;8.27;44.22;101870.06;126367;1099;104163;-79
2021/10/09 02:32:37;;;;;;;26.63;12.07;;;;;;;8.25;43.87;101873.38;126296;1099;104207;-79
2021/10/09 02:35:07;;;;;;;28.57;11.33;;;;;;;8.22;43.88;101868.83;126306;1099;104201;-78
2021/10/09 02:37:35;;;;;;;27.13;11.80;;;;;;;8.20;44.30;101865.22;126267;1099;104266;-78
2021/10/09 02:40:04;;;;;;;34.33;12.03;;;;;;;8.19;44.32;101873.85;126326;1099;104325;-78
2021/10/09 02:42:31;;;;;;;29.00;12.20;;;;;;;8.18;44.24;101869.45;126341;1099;104579;-78
2021/10/09 02:45:00;;;;;;;33.03;11.90;;;;;;;8.14;44.12;101864.80;126322;1098;104168;-79
2021/10/09 02:47:27;;;;;;;25.43;11.20;;;;;;;8.14;43.91;101869.14;126277;1099;104152;-78
2021/10/09 02:49:57;;;;;;;28.57;11.33;;;;;;;8.11;43.78;101867.21;126334;1099;104185;-79
2021/10/09 02:52:25;;;;;;;31.53;12.07;;;;;;;8.07;43.86;101862.56;126251;1099;104239;-79
2021/10/09 02:54:54;;;;;;;28.40;11.60;;;;;;;8.05;44.06;101856.34;126327;1099;104281;-77
2021/10/09 02:57:22;;;;;;;33.20;12.07;;;;;;;8.02;44.21;101858.75;126259;1099;104281;-78
2021/10/09 02:59:50;;;;;;;32.13;11.87;;;;;;;8.00;43.99;101855.13;126336;1097;104272;-78
2021/10/09 03:02:18;;;;;;;27.23;11.40;;;;;;;7.97;44.07;101855.81;126309;1099;104265;-78
2021/10/09 03:04:46;;;;;;;28.47;11.93;;;;;;;7.96;44.05;101853.99;126268;1099;104188;-77
2021/10/09 03:07:15;;;;;;;27.40;11.70;;;;;;;7.92;44.17;101850.27;126328;1099;104140;-78
2021/10/09 03:09:43;;;;;;;30.57;11.93;;;;;;;7.94;44.41;101849.48;126241;1099;110709;-78
2021/10/09 03:12:11;;;;;;;32.57;12.33;;;;;;;7.94;44.64;101849.48;126311;1099;104146;-78
2021/10/09 03:14:39;;;;;;;32.90;11.70;;;;;;;7.94;44.38;101852.10;126309;1099;104619;-78
2021/10/09 03:17:07;;;;;;;31.13;13.07;;;;;;;7.91;44.41;101847.56;126279;1099;104149;-79
2021/10/09 03:19:35;;;;;;;31.43;12.60;;;;;;;7.90;44.17;101851.00;126302;1099;104220;-78
2021/10/09 03:22:06;;;;;;;32.43;12.00;;;;;;;7.90;44.27;101856.22;126322;1099;104166;-79
2021/10/09 03:24:37;;;;;;;34.77;12.17;;;;;;;7.90;44.29;101851.89;126340;1099;104198;-79
2021/10/09 03:27:05;;;;;;;33.37;13.20;;;;;;;7.89;44.28;101850.06;126303;1099;104286;-78
2021/10/09 03:29:36;;;;;;;32.10;12.50;;;;;;;7.87;44.33;101849.07;126238;1098;104131;-78
2021/10/09 03:32:05;;;;;;;29.53;11.13;;;;;;;7.86;44.55;101852.47;126355;1099;104195;-79
2021/10/09 03:34:33;;;;;;;31.20;11.55;;;;;;;7.85;44.54;101849.75;126291;1099;104144;-78
2021/10/09 03:37:05;;;;;;;31.93;12.50;;;;;;;7.84;44.13;101854.09;126349;1099;104200;-78
2021/10/09 03:39:37;;;;;;;26.03;11.63;;;;;;;7.82;44.56;101850.47;126226;1098;105644;-77
2021/10/09 03:42:08;;;;;;;29.20;11.83;;;;;;;7.83;44.38;101854.88;126202;1099;104141;-78
2021/10/09 03:44:38;;;;;;;31.23;11.80;;;;;;;7.84;44.58;101859.31;126364;1099;104172;-79
2021/10/09 03:47:15;;;;;;;28.60;12.03;;;;;;;7.83;44.51;101859.20;126290;1099;104172;-78
2021/10/09 03:49:48;;;;;;;29.43;12.33;;;;;;;7.84;44.46;101851.47;126248;1099;104150;-79
2021/10/09 03:52:35;;;;;;;26.80;11.27;;;;;;;7.84;44.73;101861.03;126308;1099;104236;-78
2021/10/09 03:55:03;;;;;;;;;;;;;;;7.83;44.51;101861.82;126202;1099;104269;-78
2021/10/09 03:57:31;;;;;;;28.60;11.70;;;;;;;7.85;44.90;101861.14;126317;1099;104268;-77
2021/10/09 04:00:01;;;;;;;31.53;11.67;;;;;;;7.86;44.62;101862.03;126234;1098;104268;-79
2021/10/09 04:02:32;;;;;;;30.63;12.67;;;;;;;7.86;44.67;101859.42;126199;1099;104175;-78
2021/10/09 04:05:05;;;;;;;29.23;12.17;;;;;;;7.86;44.19;101859.42;126299;1098;104169;-77
2021/10/09 04:13:36;;;;;;;31.77;12.13;;;;;;;7.84;44.41;101861.03;126283;1097;104172;-79
2021/10/09 04:16:05;;;;;;;27.73;11.60;;;;;;;7.84;44.64;101866.25;126332;1099;104166;-79
2021/10/09 04:21:36;;;;;;;26.80;11.83;;;;;;;7.82;44.35;101881.83;126260;1099;108571;-79
2021/10/09 04:24:05;;;;;;;27.43;12.17;;;;;;;7.84;44.30;101879.33;126281;1099;104198;-78
2021/10/09 04:26:33;;;;;;;30.93;11.30;;;;;;;7.85;44.66;101881.11;126366;1099;104267;-78
2021/10/09 04:29:03;;;;;;;32.47;13.03;;;;;;;7.84;44.81;101871.48;126246;1099;104169;-78
2021/10/09 04:31:31;;;;;;;32.77;12.00;;;;;;;7.82;44.46;101875.67;126302;1099;104313;-78
2021/10/09 04:33:59;;;;;;;27.07;11.77;;;;;;;7.84;44.48;101868.88;126273;1099;104192;-78
2021/10/09 04:36:27;;;;;;;28.00;12.30;;;;;;;7.87;44.67;101874.31;126316;1098;104149;-79
2021/10/09 04:38:56;;;;;;;29.67;12.33;;;;;;;7.89;44.64;101884.05;126254;1099;104127;-80
2021/10/09 04:41:24;;;;;;;27.83;12.13;;;;;;;7.90;44.48;101875.41;126283;1099;104277;-79
2021/10/09 04:43:53;;;;;;;29.37;12.33;;;;;;;7.92;44.66;101880.75;126322;1099;105601;-78
2021/10/09 04:46:21;;;;;;;31.30;12.43;;;;;;;7.91;44.86;101879.81;126326;1099;104317;-79
2021/10/09 04:48:50;;;;;;;30.63;12.13;;;;;;;7.94;44.58;101883.47;126337;1099;104194;-79
2021/10/09 04:51:19;;;;;;;32.73;12.37;;;;;;;7.92;44.46;101876.41;126209;1099;104134;-79
2021/10/09 04:53:47;;;;;;;29.53;12.77;;;;;;;7.94;44.42;101873.01;126345;1099;104956;-78
2021/10/09 04:56:14;;;;;;;29.03;11.80;;;;;;;7.96;44.68;101881.84;126296;1099;104213;-79
2021/10/09 04:58:42;;;;;;;29.77;11.83;;;;;;;8.00;44.62;101881.27;126343;1099;104182;-78
2021/10/09 05:01:11;;;;;;;31.87;13.17;;;;;;;8.00;44.71;101876.94;126274;1099;104274;-78
2021/10/09 05:03:40;;;;;;;32.63;13.17;;;;;;;8.01;45.02;101880.45;126298;1099;104827;-79
2021/10/09 05:06:08;;;;;;;34.00;12.73;;;;;;;8.02;44.76;101879.66;126258;1099;104190;-79
2021/10/09 05:08:37;;;;;;;33.37;12.40;;;;;;;8.02;44.52;101883.16;126313;1099;104137;-78
2021/10/09 05:11:05;;;;;;;30.27;12.87;;;;;;;8.03;44.25;101882.38;126198;1099;104348;-79
2021/10/09 05:13:34;;;;;;;30.03;11.60;;;;;;;8.03;44.37;101884.09;126348;1099;104265;-78
2021/10/09 05:16:02;;;;;;;35.00;13.40;;;;;;;8.03;44.54;101884.09;126315;1099;104220;-78
2021/10/09 05:18:31;;;;;;;35.17;12.90;;;;;;;8.10;44.14;101888.92;126350;1099;104146;-78
2021/10/09 05:20:59;;;;;;;32.67;12.70;;;;;;;8.14;44.62;101893.56;126291;1099;104163;-79
2021/10/09 05:23:30;;;;;;;28.93;12.60;;;;;;;8.17;44.25;101893.77;126308;1099;101687;-78
2021/10/09 05:25:58;;;;;;;30.53;12.43;;;;;;;8.24;44.43;101895.08;126310;1099;104169;-78
2021/10/09 05:28:38;;;;;;;29.10;11.47;;;;;;;8.29;44.43;101893.70;126314;1099;104137;-78
2021/10/09 05:31:08;;;;;;;30.37;12.77;;;;;;;8.37;44.67;101888.98;126270;1099;104142;-78
2021/10/09 05:33:38;;;;;;;30.33;12.67;;;;;;;8.43;44.19;101902.45;126357;1098;104143;-79
2021/10/09 05:36:07;;;;;;;33.03;12.63;;;;;;;8.47;44.06;101899.28;126263;1099;104300;-79
2021/10/09 05:38:36;;;;;;;34.07;12.83;;;;;;;8.51;43.99;101896.08;126303;1099;104134;-79
2021/10/09 05:41:05;;;;;;;29.73;12.80;;;;;;;8.54;44.62;101903.20;126282;1099;104245;-78
2021/10/09 05:43:37;;;;;;;33.37;12.10;;;;;;;8.57;43.54;101908.63;126350;1098;104271;-78
2021/10/09 05:46:07;;;;;;;33.97;12.03;;;;;;;8.54;43.37;101911.05;126274;1099;104175;-79
2021/10/09 05:48:37;;;;;;;36.20;14.20;;;;;;;8.45;43.79;101919.20;126297;1099;104290;-78
2021/10/09 05:51:08;;;;;;;31.17;12.83;;;;;;;8.43;43.54;101915.52;126258;1099;104271;-78
2021/10/09 05:56:27;;;;;;;32.13;12.90;;;;;;;8.56;43.51;101914.69;126290;1099;104198;-78
2021/10/09 05:59:07;;;;;;;31.03;12.20;;;;;;;8.57;43.83;101920.03;126323;1099;104153;-77
2021/10/09 06:01:49;;;;;;;34.60;13.03;;;;;;;8.57;43.16;101917.41;126258;1099;104216;-78
2021/10/09 06:26:12;;;;;;;26.50;10.70;;;;;;;9.04;43.14;101918.70;126314;1099;104329;-79
2021/10/09 06:31:49;;;;;;;29.20;12.53;;;;;;;9.15;43.36;101911.55;126366;1099;104242;-78
2021/10/09 06:42:45;;;;;;;29.80;12.07;;;;;;;9.28;41.62;101916.73;125189;1099;104156;-78
2021/10/09 06:48:27;;;;;;;28.20;12.33;;;;;;;9.29;41.89;101921.17;125305;1099;104392;-77
2021/10/09 07:01:37;;;;;;;32.03;11.87;;;;;;;9.84;41.18;101923.70;126334;1099;104242;-77
2021/10/09 07:04:09;;;;;;;29.10;11.23;;;;;;;10.00;41.17;101911.53;126310;1099;104149;-77
2021/10/09 07:06:39;;;;;;;26.30;11.30;;;;;;;10.12;41.56;101924.50;126262;1099;104203;-78
2021/10/09 07:09:10;;;;;;;34.27;12.57;;;;;;;10.21;40.73;101917.18;126289;1099;104197;-78
2021/10/09 07:11:47;;;;;;;33.53;12.17;;;;;;;10.40;40.81;101920.10;126326;1099;104182;-79
2021/10/09 07:14:16;;;;;;;30.47;12.40;;;;;;;10.60;41.30;101917.75;126305;1099;104217;-77
2021/10/09 07:16:45;;;;;;;27.67;11.67;;;;;;;10.56;39.87;101916.64;126321;1099;104239;-79
2021/10/09 07:19:13;;;;;;;26.27;10.67;;;;;;;10.64;39.75;101910.95;126348;1099;104377;-78
2021/10/09 07:21:44;;;;;;;27.80;11.40;;;;;;;10.56;39.29;101905.25;126209;1099;104328;-79
2021/10/09 07:24:14;;;;;;;30.43;10.67;;;;;;;10.53;37.88;101903.38;126309;1099;104185;-78
2021/10/09 07:26:42;;;;;;;29.03;11.40;;;;;;;10.55;39.65;101901.73;126275;1099;104251;-78
2021/10/09 07:29:10;;;;;;;27.47;12.07;;;;;;;10.68;39.57;101907.70;126218;1099;104153;-78
2021/10/09 07:31:39;;;;;;;27.67;11.40;;;;;;;10.84;40.18;101906.84;126234;1097;104217;-79
2021/10/09 07:34:07;;;;;;;28.00;12.30;;;;;;;10.97;39.35;101906.74;126190;1099;104303;-79
2021/10/09 07:36:35;;;;;;;27.30;10.53;;;;;;;11.03;38.67;101903.53;126310;1099;104137;-78
2021/10/09 07:39:03;;;;;;;23.90;9.93;;;;;;;11.01;38.97;101898.20;126284;1097;104223;-78
2021/10/09 07:41:30;;;;;;;28.40;10.87;;;;;;;10.94;38.84;101894.33;126310;1099;104274;-78
2021/10/09 07:43:58;;;;;;;25.87;10.70;;;;;;;11.04;39.42;101898.37;126229;1099;104753;-79
2021/10/09 07:46:26;;;;;;;28.67;10.93;;;;;;;11.14;39.38;101894.52;126275;1099;104133;-78
2021/10/09 07:48:54;;;;;;;28.60;10.60;;;;;;;11.27;39.02;101896.13;126326;1099;104271;-78
2021/10/09 07:51:22;;;;;;;29.83;10.70;;;;;;;11.20;38.66;101893.97;126312;1099;104569;-78
2021/10/09 07:53:50;;;;;;;27.33;10.10;;;;;;;11.25;38.78;101900.38;126319;1099;104340;-78
2021/10/09 07:56:18;;;;;;;30.33;10.20;;;;;;;11.26;38.05;101904.82;126313;1098;104188;-78
2021/10/09 07:58:49;;;;;;;29.90;11.07;;;;;;;11.32;38.23;101905.16;126316;1099;104374;-78
2021/10/09 08:01:16;;;;;;;29.35;10.40;;;;;;;11.37;37.24;101915.93;126356;1099;104133;-79
2021/10/09 08:03:45;;;;;;;30.13;10.73;;;;;;;11.36;37.80;101911.48;126331;1099;105483;-78
2021/10/09 08:06:13;;;;;;;26.30;10.40;;;;;;;11.42;37.43;101907.48;126302;1099;104166;-79
2021/10/09 08:08:41;;;;;;;29.47;10.30;;;;;;;11.47;38.03;101908.63;126317;1099;104168;-78
2021/10/09 08:11:09;;;;;;;27.37;10.07;;;;;;;11.50;37.58;101911.43;126248;1099;104169;-78
2021/10/09 08:13:37;;;;;;;25.97;10.00;;;;;;;11.55;37.69;101895.91;126314;1099;104161;-78
2021/10/09 08:16:05;;;;;;;27.43;9.00;;;;;;;11.54;36.89;101893.20;126250;1099;104219;-80
2021/10/09 08:18:34;;;;;;;27.33;9.33;;;;;;;11.56;36.99;101896.80;126325;1099;104141;-78
2021/10/09 08:21:04;;;;;;;25.43;9.77;;;;;;;11.66;37.01;101892.13;126250;1099;104337;-79
2021/10/09 08:23:39;;;;;;;26.20;9.47;;;;;;;11.79;37.30;101888.41;126226;1099;104140;-79
2021/10/09 08:26:36;;;;;;;25.30;9.00;;;;;;;11.93;36.82;101891.80;126256;1099;104163;-79
2021/10/09 08:37:20;;;;;;;26.75;9.30;;;;;;;12.31;35.63;101873.55;126225;1099;107057;-78
2021/10/09 08:39:47;;;;;;;27.07;9.90;;;;;;;12.40;36.46;101879.27;126371;1099;104277;-79
2021/10/09 08:42:27;;;;;;;21.97;8.90;;;;;;;12.47;35.19;101875.24;126324;1099;104163;-78
2021/10/09 08:45:11;;;;;;;21.80;8.47;;;;;;;12.33;35.43;101883.33;126260;1099;104319;-78
2021/10/09 08:47:43;;;;;;;24.60;10.17;;;;;;;12.30;35.65;101880.55;126343;1099;104341;-77
2021/10/09 08:50:13;;;;;;;25.87;9.07;;;;;;;12.28;35.20;101886.55;125277;1099;104457;-78
2021/10/09 08:53:00;;;;;;;23.60;8.87;;;;;;;12.38;35.74;101880.94;125314;1102;104208;-78
2021/10/09 08:55:34;;;;;;;28.40;9.50;;;;;;;12.45;36.36;101884.77;125252;1100;105480;-78
2021/10/09 08:58:05;;;;;;;26.33;9.90;;;;;;;12.54;36.08;101893.12;125273;1098;104374;-79
2021/10/09 09:00:42;;;;;;;24.40;9.33;;;;;;;12.52;35.52;101879.00;125179;1098;104317;-78
2021/10/09 09:03:15;;;;;;;29.10;8.93;;;;;;;12.47;35.43;101881.40;125289;1099;104294;-77
2021/10/09 09:06:05;;;;;;;28.03;9.07;;;;;;;12.54;35.76;101891.42;125244;1098;104302;-77
2021/10/09 09:33:31;;;;;;;22.20;9.07;;;;;;;12.68;34.89;101902.61;126267;1099;104268;-78
2021/10/09 09:39:03;;;;;;;27.97;9.43;;;;;;;12.54;34.36;101896.69;126315;1099;104275;-78
2021/10/09 09:41:41;;;;;;;24.63;10.10;;;;;;;12.57;34.79;101899.48;126340;1099;104139;-79
2021/10/09 09:44:12;;;;;;;26.13;8.83;;;;;;;12.65;34.89;101894.56;126315;1099;104184;-78
2021/10/09 09:46:40;;;;;;;29.90;8.60;;;;;;;12.71;34.93;101891.34;126275;1099;104161;-79
2021/10/09 09:49:09;;;;;;;30.80;9.20;;;;;;;12.72;34.77;101890.52;126302;1099;104252;-79
2021/10/09 09:51:38;;;;;;;28.90;9.03;;;;;;;12.78;34.93;101888.19;126367;1099;104163;-78
2021/10/09 09:54:06;;;;;;;23.97;9.63;;;;;;;12.81;34.70;101892.68;126248;1099;104175;-79
2021/10/09 09:56:35;;;;;;;25.07;8.40;;;;;;;12.88;34.72;101890.42;126265;1099;104376;-79
2021/10/09 09:59:03;;;;;;;20.73;7.30;;;;;;;12.93;34.42;101888.94;126310;1099;104149;-79
2021/10/09 10:01:36;;;;;;;24.80;8.40;;;;;;;12.78;34.60;101896.09;126352;1099;104206;-79
2021/10/09 10:04:08;;;;;;;30.00;9.13;;;;;;;12.71;34.95;101886.95;126368;1098;104137;-78
2021/10/09 10:06:36;;;;;;;29.67;9.00;;;;;;;12.81;34.92;101890.05;126316;1099;102044;-78
2021/10/09 10:09:04;;;;;;;25.47;8.73;;;;;;;12.82;34.72;101887.48;126306;1099;104459;-79
2021/10/09 10:11:32;;;;;;;22.95;8.25;;;;;;;12.66;34.66;101888.47;126344;1097;104142;-79
2021/10/09 10:14:01;;;;;;;28.87;8.93;;;;;;;12.79;34.99;101883.81;126275;1098;104142;-78
2021/10/09 10:16:29;;;;;;;21.53;8.63;;;;;;;12.90;35.18;101887.86;126346;1099;104271;-77
2021/10/09 10:18:58;;;;;;;31.80;9.27;;;;;;;12.96;35.12;101882.89;126245;1099;119498;-78
2021/10/09 10:21:50;;;;;;;26.77;9.50;;;;;;;13.02;35.31;101880.55;126292;1099;104357;-78
2021/10/09 10:24:44;;;;;;;26.83;8.67;;;;;;;13.09;35.19;101887.92;126278;1099;104142;-78
2021/10/09 10:27:31;;;;;;;28.07;7.93;;;;;;;13.16;34.55;101881.20;126212;1099;104159;-77
2021/10/09 10:30:20;;;;;;;24.30;7.87;;;;;;;13.17;34.80;101879.49;126233;1098;104140;-76
2021/10/09 10:33:18;;;;;;;29.20;7.50;;;;;;;13.21;35.24;101873.52;126241;1099;104249;-78
2021/10/09 10:35:47;;;;;;;27.03;7.40;;;;;;;13.22;34.82;101870.95;126243;1099;104274;-78
2021/10/09 10:38:44;;;;;;;27.90;7.27;;;;;;;13.26;35.05;101867.64;126281;1097;104153;-78
2021/10/09 10:41:17;;;;;;;23.77;6.43;;;;;;;13.34;34.79;101875.02;125600;1099;104272;-79
2021/10/09 10:43:48;;;;;;;27.93;7.62;;;;;;;13.34;35.24;101869.73;126197;1099;104307;-76
2021/10/09 10:46:33;;;;;;;25.57;7.67;;;;;;;13.34;35.32;101867.10;126257;1098;104143;-79
2021/10/09 10:49:05;;;;;;;25.83;6.67;;;;;;;13.38;35.36;101869.95;126179;1099;104265;-78
2021/10/09 10:51:51;;;;;;;25.33;7.83;;;;;;;13.42;35.26;101868.38;126275;1099;104151;-78
2021/10/09 10:54:33;;;;;;;26.07;7.30;;;;;;;13.48;35.79;101869.56;126294;1099;104261;-78
2021/10/09 10:57:20;;;;;;;20.53;6.10;;;;;;;13.39;34.68;101873.52;126323;1099;104310;-79
2021/10/09 10:59:57;;;;;;;22.17;6.53;;;;;;;13.39;35.08;101870.87;126368;1099;119856;-77
2021/10/09 11:02:29;;;;;;;26.13;7.10;;;;;;;13.37;35.66;101872.52;126332;1099;104268;-79
2021/10/09 11:04:59;;;;;;;26.80;6.73;;;;;;;13.45;35.39;101869.42;126295;1099;104140;-78
2021/10/09 11:07:29;;;;;;;23.40;6.70;;;;;;;13.52;35.08;101865.31;126339;1099;104140;-79
2021/10/09 11:10:09;;;;;;;29.27;6.57;;;;;;;13.60;35.16;101868.30;126240;1099;104149;-78
2021/10/09 11:12:39;;;;;;;28.07;6.80;;;;;;;13.64;35.27;101876.42;126323;1099;104242;-76
2021/10/09 11:15:14;;;;;;;20.80;6.40;;;;;;;13.70;36.00;101867.89;126278;1099;104271;-77
2021/10/09 11:17:45;;;;;;;33.13;6.90;;;;;;;13.73;35.47;101867.11;126349;1099;104146;-77
2021/10/09 11:20:20;;;;;;;21.37;6.37;;;;;;;13.79;35.71;101863.03;126211;1099;111422;-78
2021/10/09 11:22:50;;;;;;;26.57;6.30;;;;;;;13.85;35.20;101865.02;126346;1099;104162;-78
2021/10/09 11:25:30;;;;;;;21.27;5.50;;;;;;;13.84;35.32;101853.57;126317;1099;104163;-79
2021/10/09 11:28:21;;;;;;;18.70;5.27;;;;;;;13.82;34.78;101856.97;126270;1098;104133;-79
2021/10/09 11:30:49;;;;;;;26.27;5.20;;;;;;;13.92;35.28;101850.37;126250;1099;104137;-79
2021/10/09 11:33:23;;;;;;;20.63;5.43;;;;;;;13.91;35.33;101851.20;126325;1098;104185;-79
2021/10/09 11:35:52;;;;;;;22.05;5.53;;;;;;;13.97;35.53;101860.27;126275;1099;104143;-79
2021/10/09 11:38:26;;;;;;;26.63;5.70;;;;;;;14.01;35.07;101851.66;126333;1099;104220;-79
2021/10/09 11:40:57;;;;;;;24.97;6.37;;;;;;;14.00;35.65;101855.12;126203;1099;104284;-78
2021/10/09 11:43:43;;;;;;;24.90;5.63;;;;;;;14.06;35.45;101853.62;126296;1099;104188;-79
2021/10/09 11:46:31;;;;;;;23.70;5.77;;;;;;;14.13;35.89;101855.66;126320;1097;104171;-79
2021/10/09 11:54:48;;;;;;;25.00;5.63;;;;;;;14.30;35.12;101859.91;126279;1099;104431;-78
2021/10/09 11:57:16;;;;;;;24.40;4.95;;;;;;;14.22;35.28;101855.16;126360;1099;104307;-78
2021/10/09 11:59:44;;;;;;;27.70;5.57;;;;;;;14.26;36.06;101855.36;126256;1099;104163;-78
2021/10/09 12:02:31;;;;;;;16.93;4.67;;;;;;;14.25;35.53;101853.55;126333;1099;104235;-78
2021/10/09 12:04:59;;;;;;;22.67;4.70;;;;;;;14.29;35.24;101860.77;126284;1099;104317;-78
2021/10/09 12:07:27;;;;;;;22.63;4.57;;;;;;;14.20;35.93;101860.37;126293;1099;104338;-78
2021/10/09 12:10:11;;;;;;;24.70;4.80;;;;;;;14.17;35.47;101860.25;126290;1099;104567;-76
2021/10/09 12:12:39;;;;;;;26.90;4.50;;;;;;;14.14;35.99;101853.09;126309;1097;104142;-77
2021/10/09 12:15:25;;;;;;;22.73;4.50;;;;;;;14.13;35.51;101856.59;126264;1099;104172;-80
2021/10/09 12:18:00;;;;;;;28.47;5.93;;;;;;;14.17;35.75;101853.22;126295;1099;104274;-78
2021/10/09 12:20:29;;;;;;;20.63;4.57;;;;;;;14.23;35.47;101857.88;126288;1099;104293;-78
2021/10/09 12:22:58;;;;;;;26.10;4.90;;;;;;;14.27;36.43;101858.89;126337;1099;104226;-78
2021/10/09 12:25:29;;;;;;;21.47;4.80;;;;;;;14.30;35.78;101859.91;126329;1099;104147;-79
2021/10/09 12:27:59;;;;;;;23.23;5.40;;;;;;;14.25;34.98;101863.22;126297;1099;104146;-79
2021/10/09 12:30:36;;;;;;;22.93;4.97;;;;;;;14.17;35.73;101866.42;126233;1099;104133;-79
2021/10/09 12:33:04;;;;;;;24.07;4.77;;;;;;;14.18;35.96;101864.70;126315;1099;104281;-78
2021/10/09 12:35:34;;;;;;;24.07;5.10;;;;;;;14.16;35.92;101866.35;126318;1099;104156;-77
2021/10/09 12:38:04;;;;;;;30.23;5.53;;;;;;;14.07;35.24;101863.31;126243;1099;104156;-79
2021/10/09 12:40:39;;;;;;;32.07;5.70;;;;;;;14.08;36.07;101859.85;126290;1099;104278;-78
2021/10/09 12:43:11;;;;;;;23.37;5.40;;;;;;;14.11;36.13;101857.34;126322;1099;104136;-78
2021/10/09 12:45:40;;;;;;;36.53;6.40;;;;;;;14.11;36.05;101857.34;126338;1099;104147;-79
2021/10/09 12:48:09;;;;;;;30.97;5.43;;;;;;;14.13;36.49;101850.37;126343;1099;104185;-80
2021/10/09 12:50:39;;;;;;;25.00;5.00;;;;;;;14.13;35.52;101853.02;126268;1098;104964;-79
2021/10/09 12:53:08;;;;;;;33.03;6.73;;;;;;;14.12;35.74;101845.96;126319;1098;104270;-79
2021/10/09 12:55:37;;;;;;;21.97;5.10;;;;;;;14.12;35.80;101849.49;126301;1099;104137;-79
2021/10/09 12:58:08;;;;;;;28.93;5.47;;;;;;;14.14;35.79;101853.09;126342;1099;104336;-78
2021/10/09 13:00:38;;;;;;;28.07;5.93;;;;;;;14.13;35.53;101846.03;126295;1099;104181;-76
2021/10/09 13:03:06;;;;;;;25.87;4.67;;;;;;;14.13;36.54;101845.10;126257;1099;104271;-79
2021/10/09 13:05:34;;;;;;;27.40;4.67;;;;;;;14.09;35.99;101852.00;126258;1099;104290;-78
2021/10/09 13:08:05;;;;;;;33.33;6.30;;;;;;;13.99;35.22;101853.35;126270;1099;104601;-79
2021/10/09 13:10:34;;;;;;;28.53;5.00;;;;;;;13.98;36.16;101848.89;126193;1099;104229;-79